sensor_id;sensor_type;location;lat;lon;timestamp;P1;durP1;ratioP1;P2;durP2;ratioP2
23802;SDS011;12082;51.786;6.018;2023-09-19T00:02:14;22.03;;;16.23;;
23802;SDS011;12082;51.786;6.018;2023-09-19T00:04:42;21.87;;;20.00;;
23802;SDS011;12082;51.786;6.018;2023-09-19T00:07:10;23.27;;;18.43;;
23802;SDS011;12082;51.786;6.018;2023-09-19T00:09:36;21.90;;;19.93;;
23802;SDS011;12082;51.786;6.018;2023-09-19T00:12:04;19.47;;;14.60;;
23802;SDS011;12082;51.786;6.018;2023-09-19T00:14:30;25.47;;;18.27;;
23802;SDS011;12082;51.786;6.018;2023-09-19T00:16:59;23.93;;;17.50;;
23802;SDS011;12082;51.786;6.018;2023-09-19T00:19:30;17.70;;;13.23;;
23802;SDS011;12082;51.786;6.018;2023-09-19T00:21:57;16.60;;;15.13;;
23802;SDS011;12082;51.786;6.018;2023-09-19T00:24:25;17.57;;;13.87;;
23802;SDS011;12082;51.786;6.018;2023-09-19T00:26:54;28.10;;;14.03;;
23802;SDS011;12082;51.786;6.018;2023-09-19T00:29:24;17.83;;;14.90;;
23802;SDS011;12082;51.786;6.018;2023-09-19T00:31:54;27.57;;;17.40;;
23802;SDS011;12082;51.786;6.018;2023-09-19T00:34:19;28.93;;;18.13;;
23802;SDS011;12082;51.786;6.018;2023-09-19T00:36:45;28.97;;;18.70;;
23802;SDS011;12082;51.786;6.018;2023-09-19T00:39:11;25.87;;;19.90;;
23802;SDS011;12082;51.786;6.018;2023-09-19T00:41:39;23.67;;;18.63;;
23802;SDS011;12082;51.786;6.018;2023-09-19T00:44:09;25.03;;;20.70;;
23802;SDS011;12082;51.786;6.018;2023-09-19T00:46:37;20.57;;;18.50;;
23802;SDS011;12082;51.786;6.018;2023-09-19T00:49:05;32.07;;;28.97;;
23802;SDS011;12082;51.786;6.018;2023-09-19T00:51:34;32.60;;;25.10;;
23802;SDS011;12082;51.786;6.018;2023-09-19T00:54:02;29.97;;;27.00;;
23802;SDS011;12082;51.786;6.018;2023-09-19T00:56:29;36.97;;;23.50;;
23802;SDS011;12082;51.786;6.018;2023-09-19T00:58:55;28.43;;;25.87;;
23802;SDS011;12082;51.786;6.018;2023-09-19T01:01:21;27.80;;;18.77;;
23802;SDS011;12082;51.786;6.018;2023-09-19T01:03:47;19.30;;;17.27;;
23802;SDS011;12082;51.786;6.018;2023-09-19T01:06:12;25.23;;;22.20;;
23802;SDS011;12082;51.786;6.018;2023-09-19T01:08:38;26.80;;;24.23;;
23802;SDS011;12082;51.786;6.018;2023-09-19T01:13:47;26.27;;;22.57;;
23802;SDS011;12082;51.786;6.018;2023-09-19T01:19:19;24.43;;;20.50;;
23802;SDS011;12082;51.786;6.018;2023-09-19T01:22:13;28.50;;;20.93;;
23802;SDS011;12082;51.786;6.018;2023-09-19T01:24:55;27.07;;;20.63;;
23802;SDS011;12082;51.786;6.018;2023-09-19T01:27:49;22.87;;;19.07;;
23802;SDS011;12082;51.786;6.018;2023-09-19T01:30:20;24.13;;;19.73;;
23802;SDS011;12082;51.786;6.018;2023-09-19T01:32:49;27.70;;;21.73;;
23802;SDS011;12082;51.786;6.018;2023-09-19T01:35:17;24.90;;;19.07;;
23802;SDS011;12082;51.786;6.018;2023-09-19T01:37:43;21.30;;;18.30;;
23802;SDS011;12082;51.786;6.018;2023-09-19T01:40:10;29.30;;;16.67;;
23802;SDS011;12082;51.786;6.018;2023-09-19T01:48:09;30.87;;;18.13;;
23802;SDS011;12082;51.786;6.018;2023-09-19T01:55:41;31.57;;;21.80;;
23802;SDS011;12082;51.786;6.018;2023-09-19T02:00:48;30.60;;;27.93;;
23802;SDS011;12082;51.786;6.018;2023-09-19T02:03:16;24.10;;;21.80;;
23802;SDS011;12082;51.786;6.018;2023-09-19T02:05:48;28.10;;;22.23;;
23802;SDS011;12082;51.786;6.018;2023-09-19T02:08:16;24.93;;;22.77;;
23802;SDS011;12082;51.786;6.018;2023-09-19T02:10:44;24.07;;;21.50;;
23802;SDS011;12082;51.786;6.018;2023-09-19T02:13:15;22.67;;;20.47;;
23802;SDS011;12082;51.786;6.018;2023-09-19T02:15:42;24.73;;;19.67;;
23802;SDS011;12082;51.786;6.018;2023-09-19T02:18:12;14.77;;;13.43;;
23802;SDS011;12082;51.786;6.018;2023-09-19T02:20:39;15.47;;;14.07;;
23802;SDS011;12082;51.786;6.018;2023-09-19T02:23:08;22.47;;;12.80;;
23802;SDS011;12082;51.786;6.018;2023-09-19T02:25:34;25.70;;;12.67;;
23802;SDS011;12082;51.786;6.018;2023-09-19T02:28:03;19.33;;;12.80;;
23802;SDS011;12082;51.786;6.018;2023-09-19T02:30:29;21.73;;;14.77;;
23802;SDS011;12082;51.786;6.018;2023-09-19T02:32:55;16.33;;;14.83;;
23802;SDS011;12082;51.786;6.018;2023-09-19T02:35:22;17.63;;;15.03;;
23802;SDS011;12082;51.786;6.018;2023-09-19T02:37:51;16.60;;;14.07;;
23802;SDS011;12082;51.786;6.018;2023-09-19T02:40:17;18.47;;;12.17;;
23802;SDS011;12082;51.786;6.018;2023-09-19T02:42:53;21.07;;;12.77;;
23802;SDS011;12082;51.786;6.018;2023-09-19T02:45:19;13.70;;;12.50;;
23802;SDS011;12082;51.786;6.018;2023-09-19T02:47:48;14.53;;;12.13;;
23802;SDS011;12082;51.786;6.018;2023-09-19T02:50:15;17.53;;;13.73;;
23802;SDS011;12082;51.786;6.018;2023-09-19T02:52:44;17.37;;;13.00;;
23802;SDS011;12082;51.786;6.018;2023-09-19T02:55:13;19.17;;;13.20;;
23802;SDS011;12082;51.786;6.018;2023-09-19T02:57:45;16.73;;;13.80;;
23802;SDS011;12082;51.786;6.018;2023-09-19T03:00:11;18.87;;;13.80;;
23802;SDS011;12082;51.786;6.018;2023-09-19T03:02:37;20.30;;;15.40;;
23802;SDS011;12082;51.786;6.018;2023-09-19T03:05:06;17.77;;;14.03;;
23802;SDS011;12082;51.786;6.018;2023-09-19T03:07:32;17.90;;;15.20;;
23802;SDS011;12082;51.786;6.018;2023-09-19T03:09:58;21.97;;;19.83;;
23802;SDS011;12082;51.786;6.018;2023-09-19T03:12:28;18.03;;;16.33;;
23802;SDS011;12082;51.786;6.018;2023-09-19T03:14:54;19.23;;;15.80;;
23802;SDS011;12082;51.786;6.018;2023-09-19T03:17:20;23.37;;;16.57;;
23802;SDS011;12082;51.786;6.018;2023-09-19T03:19:48;20.17;;;18.30;;
23802;SDS011;12082;51.786;6.018;2023-09-19T03:22:15;21.53;;;18.43;;
23802;SDS011;12082;51.786;6.018;2023-09-19T03:24:41;16.33;;;14.60;;
23802;SDS011;12082;51.786;6.018;2023-09-19T03:27:09;18.67;;;16.90;;
23802;SDS011;12082;51.786;6.018;2023-09-19T03:29:35;17.97;;;15.57;;
23802;SDS011;12082;51.786;6.018;2023-09-19T03:32:01;16.53;;;14.93;;
23802;SDS011;12082;51.786;6.018;2023-09-19T03:34:28;21.17;;;15.83;;
23802;SDS011;12082;51.786;6.018;2023-09-19T03:36:54;22.17;;;14.67;;
23802;SDS011;12082;51.786;6.018;2023-09-19T03:39:20;18.37;;;16.60;;
23802;SDS011;12082;51.786;6.018;2023-09-19T03:41:46;21.50;;;19.77;;
23802;SDS011;12082;51.786;6.018;2023-09-19T03:44:12;23.80;;;21.63;;
23802;SDS011;12082;51.786;6.018;2023-09-19T03:46:40;19.73;;;18.00;;
23802;SDS011;12082;51.786;6.018;2023-09-19T03:49:06;18.20;;;16.37;;
23802;SDS011;12082;51.786;6.018;2023-09-19T03:51:32;21.27;;;17.40;;
23802;SDS011;12082;51.786;6.018;2023-09-19T03:53:59;21.23;;;19.20;;
23802;SDS011;12082;51.786;6.018;2023-09-19T03:56:25;21.87;;;19.53;;
23802;SDS011;12082;51.786;6.018;2023-09-19T03:58:51;22.57;;;20.80;;
23802;SDS011;12082;51.786;6.018;2023-09-19T04:01:20;23.27;;;21.13;;
23802;SDS011;12082;51.786;6.018;2023-09-19T04:03:55;20.40;;;18.87;;
23802;SDS011;12082;51.786;6.018;2023-09-19T04:06:33;22.87;;;20.90;;
23802;SDS011;12082;51.786;6.018;2023-09-19T04:09:00;18.10;;;16.30;;
23802;SDS011;12082;51.786;6.018;2023-09-19T04:11:26;26.67;;;23.93;;
23802;SDS011;12082;51.786;6.018;2023-09-19T04:13:52;22.17;;;19.93;;
23802;SDS011;12082;51.786;6.018;2023-09-19T04:16:18;23.20;;;20.97;;
23802;SDS011;12082;51.786;6.018;2023-09-19T04:18:44;30.23;;;28.00;;
23802;SDS011;12082;51.786;6.018;2023-09-19T04:21:14;25.23;;;22.87;;
23802;SDS011;12082;51.786;6.018;2023-09-19T04:23:43;23.63;;;21.70;;
23802;SDS011;12082;51.786;6.018;2023-09-19T04:26:10;24.63;;;22.20;;
23802;SDS011;12082;51.786;6.018;2023-09-19T04:28:41;29.07;;;27.03;;
23802;SDS011;12082;51.786;6.018;2023-09-19T04:31:11;27.53;;;25.50;;
23802;SDS011;12082;51.786;6.018;2023-09-19T04:33:39;32.83;;;30.07;;
23802;SDS011;12082;51.786;6.018;2023-09-19T04:36:05;36.30;;;32.93;;
23802;SDS011;12082;51.786;6.018;2023-09-19T04:38:32;31.40;;;29.17;;
23802;SDS011;12082;51.786;6.018;2023-09-19T04:40:58;61.60;;;57.57;;
23802;SDS011;12082;51.786;6.018;2023-09-19T04:43:25;34.20;;;31.30;;
23802;SDS011;12082;51.786;6.018;2023-09-19T04:45:54;34.93;;;32.50;;
23802;SDS011;12082;51.786;6.018;2023-09-19T04:48:25;46.03;;;43.00;;
23802;SDS011;12082;51.786;6.018;2023-09-19T04:50:54;37.83;;;34.83;;
23802;SDS011;12082;51.786;6.018;2023-09-19T04:53:20;32.80;;;30.70;;
23802;SDS011;12082;51.786;6.018;2023-09-19T04:55:50;33.47;;;30.77;;
23802;SDS011;12082;51.786;6.018;2023-09-19T04:58:17;36.23;;;33.77;;
23802;SDS011;12082;51.786;6.018;2023-09-19T05:00:45;36.80;;;34.00;;
23802;SDS011;12082;51.786;6.018;2023-09-19T05:03:11;32.53;;;30.07;;
23802;SDS011;12082;51.786;6.018;2023-09-19T05:05:37;34.63;;;32.07;;
23802;SDS011;12082;51.786;6.018;2023-09-19T05:08:06;27.90;;;25.97;;
23802;SDS011;12082;51.786;6.018;2023-09-19T05:10:35;39.73;;;36.63;;
23802;SDS011;12082;51.786;6.018;2023-09-19T05:13:04;35.40;;;32.40;;
23802;SDS011;12082;51.786;6.018;2023-09-19T05:15:32;35.93;;;33.37;;
23802;SDS011;12082;51.786;6.018;2023-09-19T05:18:01;30.93;;;28.47;;
23802;SDS011;12082;51.786;6.018;2023-09-19T05:20:31;29.40;;;26.97;;
23802;SDS011;12082;51.786;6.018;2023-09-19T05:23:01;28.93;;;26.87;;
23802;SDS011;12082;51.786;6.018;2023-09-19T05:25:34;36.70;;;33.53;;
23802;SDS011;12082;51.786;6.018;2023-09-19T05:28:09;40.10;;;36.93;;
23802;SDS011;12082;51.786;6.018;2023-09-19T05:30:40;29.60;;;27.57;;
23802;SDS011;12082;51.786;6.018;2023-09-19T05:33:08;31.17;;;28.17;;
23802;SDS011;12082;51.786;6.018;2023-09-19T05:35:38;36.80;;;34.00;;
23802;SDS011;12082;51.786;6.018;2023-09-19T05:38:07;31.83;;;29.67;;
23802;SDS011;12082;51.786;6.018;2023-09-19T05:40:37;35.40;;;32.70;;
23802;SDS011;12082;51.786;6.018;2023-09-19T05:43:07;30.20;;;27.97;;
23802;SDS011;12082;51.786;6.018;2023-09-19T05:45:34;37.33;;;34.23;;
23802;SDS011;12082;51.786;6.018;2023-09-19T05:48:07;33.23;;;30.50;;
23802;SDS011;12082;51.786;6.018;2023-09-19T05:50:38;29.20;;;26.70;;
23802;SDS011;12082;51.786;6.018;2023-09-19T05:53:05;28.23;;;25.40;;
23802;SDS011;12082;51.786;6.018;2023-09-19T05:55:32;27.03;;;24.73;;
23802;SDS011;12082;51.786;6.018;2023-09-19T05:58:00;23.90;;;21.93;;
23802;SDS011;12082;51.786;6.018;2023-09-19T06:00:28;32.20;;;29.30;;
23802;SDS011;12082;51.786;6.018;2023-09-19T06:02:58;25.40;;;22.97;;
23802;SDS011;12082;51.786;6.018;2023-09-19T06:05:27;23.90;;;21.93;;
23802;SDS011;12082;51.786;6.018;2023-09-19T06:07:57;32.23;;;29.50;;
23802;SDS011;12082;51.786;6.018;2023-09-19T06:10:25;21.50;;;19.47;;
23802;SDS011;12082;51.786;6.018;2023-09-19T06:12:54;27.40;;;24.70;;
23802;SDS011;12082;51.786;6.018;2023-09-19T06:15:23;24.83;;;22.17;;
23802;SDS011;12082;51.786;6.018;2023-09-19T06:17:52;29.00;;;26.80;;
23802;SDS011;12082;51.786;6.018;2023-09-19T06:20:21;24.70;;;22.40;;
23802;SDS011;12082;51.786;6.018;2023-09-19T06:22:50;30.33;;;27.70;;
23802;SDS011;12082;51.786;6.018;2023-09-19T06:25:19;26.50;;;24.40;;
23802;SDS011;12082;51.786;6.018;2023-09-19T06:27:51;32.70;;;29.77;;
23802;SDS011;12082;51.786;6.018;2023-09-19T06:30:21;31.83;;;28.90;;
23802;SDS011;12082;51.786;6.018;2023-09-19T06:32:49;34.13;;;31.10;;
23802;SDS011;12082;51.786;6.018;2023-09-19T06:35:24;35.60;;;32.63;;
23802;SDS011;12082;51.786;6.018;2023-09-19T06:37:54;27.17;;;25.10;;
23802;SDS011;12082;51.786;6.018;2023-09-19T06:40:23;26.33;;;24.53;;
23802;SDS011;12082;51.786;6.018;2023-09-19T06:42:53;27.23;;;24.67;;
23802;SDS011;12082;51.786;6.018;2023-09-19T06:45:26;31.23;;;28.83;;
23802;SDS011;12082;51.786;6.018;2023-09-19T06:47:54;43.27;;;39.60;;
23802;SDS011;12082;51.786;6.018;2023-09-19T06:50:25;56.37;;;52.73;;
23802;SDS011;12082;51.786;6.018;2023-09-19T06:52:58;38.47;;;36.07;;
23802;SDS011;12082;51.786;6.018;2023-09-19T06:55:27;39.53;;;36.53;;
23802;SDS011;12082;51.786;6.018;2023-09-19T06:57:59;39.10;;;35.87;;
23802;SDS011;12082;51.786;6.018;2023-09-19T07:00:31;37.33;;;34.57;;
23802;SDS011;12082;51.786;6.018;2023-09-19T07:03:05;37.03;;;33.93;;
23802;SDS011;12082;51.786;6.018;2023-09-19T07:05:38;56.30;;;52.40;;
23802;SDS011;12082;51.786;6.018;2023-09-19T07:08:08;34.80;;;31.90;;
23802;SDS011;12082;51.786;6.018;2023-09-19T07:10:37;34.40;;;31.63;;
23802;SDS011;12082;51.786;6.018;2023-09-19T07:13:08;33.03;;;30.53;;
23802;SDS011;12082;51.786;6.018;2023-09-19T07:15:38;37.37;;;34.87;;
23802;SDS011;12082;51.786;6.018;2023-09-19T07:18:15;37.97;;;34.97;;
23802;SDS011;12082;51.786;6.018;2023-09-19T07:20:45;36.63;;;34.13;;
23802;SDS011;12082;51.786;6.018;2023-09-19T07:23:20;42.13;;;39.30;;
23802;SDS011;12082;51.786;6.018;2023-09-19T07:25:48;51.47;;;47.87;;
23802;SDS011;12082;51.786;6.018;2023-09-19T07:28:16;45.63;;;42.13;;
23802;SDS011;12082;51.786;6.018;2023-09-19T07:30:44;62.97;;;58.47;;
23802;SDS011;12082;51.786;6.018;2023-09-19T07:33:11;73.77;;;69.40;;
23802;SDS011;12082;51.786;6.018;2023-09-19T07:35:39;43.47;;;40.27;;
23802;SDS011;12082;51.786;6.018;2023-09-19T07:38:11;37.60;;;34.93;;
23802;SDS011;12082;51.786;6.018;2023-09-19T07:40:39;63.70;;;59.23;;
23802;SDS011;12082;51.786;6.018;2023-09-19T07:43:07;33.00;;;30.63;;
23802;SDS011;12082;51.786;6.018;2023-09-19T07:45:36;64.30;;;59.97;;
23802;SDS011;12082;51.786;6.018;2023-09-19T07:48:04;69.63;;;64.90;;
23802;SDS011;12082;51.786;6.018;2023-09-19T07:50:39;84.27;;;79.07;;
23802;SDS011;12082;51.786;6.018;2023-09-19T07:53:11;37.67;;;35.27;;
23802;SDS011;12082;51.786;6.018;2023-09-19T07:55:40;63.97;;;59.97;;
23802;SDS011;12082;51.786;6.018;2023-09-19T07:58:13;60.50;;;56.70;;
23802;SDS011;12082;51.786;6.018;2023-09-19T08:00:40;78.90;;;74.17;;
23802;SDS011;12082;51.786;6.018;2023-09-19T08:03:08;33.40;;;31.03;;
23802;SDS011;12082;51.786;6.018;2023-09-19T08:05:39;44.27;;;40.87;;
23802;SDS011;12082;51.786;6.018;2023-09-19T08:08:08;97.10;;;90.97;;
23802;SDS011;12082;51.786;6.018;2023-09-19T08:10:35;115.77;;;108.40;;
23802;SDS011;12082;51.786;6.018;2023-09-19T08:13:04;58.47;;;54.70;;
23802;SDS011;12082;51.786;6.018;2023-09-19T08:15:32;102.60;;;95.83;;
23802;SDS011;12082;51.786;6.018;2023-09-19T08:17:58;67.83;;;63.57;;
23802;SDS011;12082;51.786;6.018;2023-09-19T08:20:24;58.90;;;55.30;;
23802;SDS011;12082;51.786;6.018;2023-09-19T08:22:51;72.90;;;67.90;;
23802;SDS011;12082;51.786;6.018;2023-09-19T08:25:20;41.90;;;38.53;;
23802;SDS011;12082;51.786;6.018;2023-09-19T08:27:47;81.43;;;75.70;;
23802;SDS011;12082;51.786;6.018;2023-09-19T08:30:17;35.83;;;33.50;;
23802;SDS011;12082;51.786;6.018;2023-09-19T08:32:45;80.13;;;74.70;;
23802;SDS011;12082;51.786;6.018;2023-09-19T08:35:14;110.27;;;103.60;;
23802;SDS011;12082;51.786;6.018;2023-09-19T08:37:42;122.80;;;115.50;;
23802;SDS011;12082;51.786;6.018;2023-09-19T08:40:11;49.07;;;45.73;;
23802;SDS011;12082;51.786;6.018;2023-09-19T08:42:50;53.00;;;49.63;;
23802;SDS011;12082;51.786;6.018;2023-09-19T08:45:16;105.33;;;98.83;;
23802;SDS011;12082;51.786;6.018;2023-09-19T08:47:45;65.57;;;60.77;;
23802;SDS011;12082;51.786;6.018;2023-09-19T08:50:17;72.73;;;67.70;;
23802;SDS011;12082;51.786;6.018;2023-09-19T08:52:44;90.30;;;84.90;;
23802;SDS011;12082;51.786;6.018;2023-09-19T08:55:15;122.60;;;115.63;;
23802;SDS011;12082;51.786;6.018;2023-09-19T08:57:46;88.03;;;82.40;;
23802;SDS011;12082;51.786;6.018;2023-09-19T09:00:14;73.07;;;68.27;;
23802;SDS011;12082;51.786;6.018;2023-09-19T09:02:46;91.83;;;86.07;;
23802;SDS011;12082;51.786;6.018;2023-09-19T09:05:12;141.00;;;132.50;;
23802;SDS011;12082;51.786;6.018;2023-09-19T09:07:40;123.33;;;116.07;;
23802;SDS011;12082;51.786;6.018;2023-09-19T09:10:06;62.90;;;59.23;;
23802;SDS011;12082;51.786;6.018;2023-09-19T09:12:33;83.00;;;77.83;;
23802;SDS011;12082;51.786;6.018;2023-09-19T09:15:06;79.63;;;74.13;;
23802;SDS011;12082;51.786;6.018;2023-09-19T09:17:33;103.00;;;96.97;;
23802;SDS011;12082;51.786;6.018;2023-09-19T09:20:02;74.23;;;69.53;;
23802;SDS011;12082;51.786;6.018;2023-09-19T09:22:33;81.70;;;76.57;;
23802;SDS011;12082;51.786;6.018;2023-09-19T09:24:59;138.50;;;130.37;;
23802;SDS011;12082;51.786;6.018;2023-09-19T09:27:29;62.27;;;58.17;;
23802;SDS011;12082;51.786;6.018;2023-09-19T09:29:56;68.87;;;64.63;;
23802;SDS011;12082;51.786;6.018;2023-09-19T09:32:23;71.67;;;67.07;;
23802;SDS011;12082;51.786;6.018;2023-09-19T09:34:59;117.30;;;109.97;;
23802;SDS011;12082;51.786;6.018;2023-09-19T09:37:29;118.87;;;111.63;;
23802;SDS011;12082;51.786;6.018;2023-09-19T09:39:56;121.97;;;115.20;;
23802;SDS011;12082;51.786;6.018;2023-09-19T09:42:28;76.37;;;71.40;;
23802;SDS011;12082;51.786;6.018;2023-09-19T09:45:14;88.30;;;83.20;;
23802;SDS011;12082;51.786;6.018;2023-09-19T09:47:47;74.10;;;69.23;;
23802;SDS011;12082;51.786;6.018;2023-09-19T09:50:29;48.77;;;45.87;;
23802;SDS011;12082;51.786;6.018;2023-09-19T09:53:27;55.23;;;51.33;;
23802;SDS011;12082;51.786;6.018;2023-09-19T09:58:27;89.13;;;84.13;;
23802;SDS011;12082;51.786;6.018;2023-09-19T10:00:57;70.03;;;65.77;;
23802;SDS011;12082;51.786;6.018;2023-09-19T10:03:38;61.77;;;57.50;;
23802;SDS011;12082;51.786;6.018;2023-09-19T10:06:11;86.13;;;80.13;;
23802;SDS011;12082;51.786;6.018;2023-09-19T10:11:46;84.67;;;79.30;;
23802;SDS011;12082;51.786;6.018;2023-09-19T10:14:19;46.27;;;43.07;;
23802;SDS011;12082;51.786;6.018;2023-09-19T10:16:48;45.23;;;42.27;;
23802;SDS011;12082;51.786;6.018;2023-09-19T10:19:16;46.10;;;42.47;;
23802;SDS011;12082;51.786;6.018;2023-09-19T10:21:42;98.87;;;92.70;;
23802;SDS011;12082;51.786;6.018;2023-09-19T10:24:08;47.47;;;44.27;;
23802;SDS011;12082;51.786;6.018;2023-09-19T10:26:35;52.63;;;48.93;;
23802;SDS011;12082;51.786;6.018;2023-09-19T10:29:01;74.13;;;69.17;;
23802;SDS011;12082;51.786;6.018;2023-09-19T10:31:32;46.10;;;42.93;;
23802;SDS011;12082;51.786;6.018;2023-09-19T10:34:00;43.33;;;39.63;;
23802;SDS011;12082;51.786;6.018;2023-09-19T10:36:29;30.33;;;27.53;;
23802;SDS011;12082;51.786;6.018;2023-09-19T10:38:58;43.33;;;40.43;;
23802;SDS011;12082;51.786;6.018;2023-09-19T10:41:27;54.33;;;50.37;;
23802;SDS011;12082;51.786;6.018;2023-09-19T10:43:54;68.87;;;64.73;;
23802;SDS011;12082;51.786;6.018;2023-09-19T10:46:24;73.93;;;69.50;;
23802;SDS011;12082;51.786;6.018;2023-09-19T10:48:51;45.93;;;42.83;;
23802;SDS011;12082;51.786;6.018;2023-09-19T10:51:20;32.80;;;30.40;;
23802;SDS011;12082;51.786;6.018;2023-09-19T10:56:17;67.80;;;63.67;;
23802;SDS011;12082;51.786;6.018;2023-09-19T10:58:46;59.13;;;55.60;;
23802;SDS011;12082;51.786;6.018;2023-09-19T11:01:14;60.83;;;57.03;;
23802;SDS011;12082;51.786;6.018;2023-09-19T11:03:42;52.47;;;48.97;;
23802;SDS011;12082;51.786;6.018;2023-09-19T11:11:47;62.13;;;58.40;;
23802;SDS011;12082;51.786;6.018;2023-09-19T11:22:21;18.97;;;17.37;;
23802;SDS011;12082;51.786;6.018;2023-09-19T11:24:51;13.20;;;11.83;;
23802;SDS011;12082;51.786;6.018;2023-09-19T11:27:21;16.87;;;15.23;;
23802;SDS011;12082;51.786;6.018;2023-09-19T11:29:46;16.37;;;15.07;;
23802;SDS011;12082;51.786;6.018;2023-09-19T11:32:15;17.50;;;15.80;;
23802;SDS011;12082;51.786;6.018;2023-09-19T11:34:45;20.23;;;14.57;;
23802;SDS011;12082;51.786;6.018;2023-09-19T11:42:45;17.43;;;15.97;;
23802;SDS011;12082;51.786;6.018;2023-09-19T11:46:05;17.77;;;16.67;;
23802;SDS011;12082;51.786;6.018;2023-09-19T11:48:12;15.90;;;14.60;;
23802;SDS011;12082;51.786;6.018;2023-09-19T11:50:41;15.23;;;13.80;;
23802;SDS011;12082;51.786;6.018;2023-09-19T11:53:09;19.23;;;12.77;;
23802;SDS011;12082;51.786;6.018;2023-09-19T11:55:36;13.37;;;11.97;;
23802;SDS011;12082;51.786;6.018;2023-09-19T11:58:06;14.00;;;12.63;;
23802;SDS011;12082;51.786;6.018;2023-09-19T12:00:39;13.37;;;12.30;;
23802;SDS011;12082;51.786;6.018;2023-09-19T12:03:09;14.17;;;12.73;;
23802;SDS011;12082;51.786;6.018;2023-09-19T12:05:37;13.63;;;12.53;;
23802;SDS011;12082;51.786;6.018;2023-09-19T12:08:04;15.03;;;12.03;;
23802;SDS011;12082;51.786;6.018;2023-09-19T12:10:33;14.60;;;13.37;;
23802;SDS011;12082;51.786;6.018;2023-09-19T12:12:59;13.60;;;12.27;;
23802;SDS011;12082;51.786;6.018;2023-09-19T12:15:26;14.53;;;13.07;;
23802;SDS011;12082;51.786;6.018;2023-09-19T12:17:53;14.37;;;12.93;;
23802;SDS011;12082;51.786;6.018;2023-09-19T12:20:19;14.83;;;13.73;;
23802;SDS011;12082;51.786;6.018;2023-09-19T12:22:47;15.37;;;14.27;;
23802;SDS011;12082;51.786;6.018;2023-09-19T12:25:14;15.40;;;13.57;;
23802;SDS011;12082;51.786;6.018;2023-09-19T12:27:45;15.43;;;13.87;;
23802;SDS011;12082;51.786;6.018;2023-09-19T12:30:15;14.40;;;13.10;;
23802;SDS011;12082;51.786;6.018;2023-09-19T12:32:44;14.23;;;12.83;;
23802;SDS011;12082;51.786;6.018;2023-09-19T12:38:24;14.30;;;13.40;;
23802;SDS011;12082;51.786;6.018;2023-09-19T12:40:54;15.23;;;12.93;;
23802;SDS011;12082;51.786;6.018;2023-09-19T12:43:22;14.40;;;13.37;;
23802;SDS011;12082;51.786;6.018;2023-09-19T12:45:49;15.60;;;14.37;;
23802;SDS011;12082;51.786;6.018;2023-09-19T12:53:37;17.90;;;14.33;;
23802;SDS011;12082;51.786;6.018;2023-09-19T12:56:07;14.20;;;13.07;;
23802;SDS011;12082;51.786;6.018;2023-09-19T12:58:47;15.20;;;14.10;;
23802;SDS011;12082;51.786;6.018;2023-09-19T13:01:15;14.60;;;13.30;;
23802;SDS011;12082;51.786;6.018;2023-09-19T13:03:42;13.60;;;12.30;;
23802;SDS011;12082;51.786;6.018;2023-09-19T13:06:09;13.93;;;13.03;;
23802;SDS011;12082;51.786;6.018;2023-09-19T13:08:40;13.60;;;12.60;;
23802;SDS011;12082;51.786;6.018;2023-09-19T13:11:14;15.23;;;14.23;;
23802;SDS011;12082;51.786;6.018;2023-09-19T13:13:51;15.70;;;14.57;;
23802;SDS011;12082;51.786;6.018;2023-09-19T13:16:20;15.23;;;14.20;;
23802;SDS011;12082;51.786;6.018;2023-09-19T13:21:17;15.33;;;14.20;;
23802;SDS011;12082;51.786;6.018;2023-09-19T13:23:51;14.83;;;14.03;;
23802;SDS011;12082;51.786;6.018;2023-09-19T13:26:19;15.13;;;14.00;;
23802;SDS011;12082;51.786;6.018;2023-09-19T13:28:47;16.20;;;14.63;;
23802;SDS011;12082;51.786;6.018;2023-09-19T13:31:14;13.83;;;13.03;;
23802;SDS011;12082;51.786;6.018;2023-09-19T13:33:45;14.80;;;13.90;;
23802;SDS011;12082;51.786;6.018;2023-09-19T13:36:11;15.27;;;14.17;;
23802;SDS011;12082;51.786;6.018;2023-09-19T13:38:41;15.63;;;14.33;;
23802;SDS011;12082;51.786;6.018;2023-09-19T13:41:10;17.50;;;15.93;;
23802;SDS011;12082;51.786;6.018;2023-09-19T13:43:36;14.50;;;13.50;;
23802;SDS011;12082;51.786;6.018;2023-09-19T13:46:04;15.10;;;13.80;;
23802;SDS011;12082;51.786;6.018;2023-09-19T13:48:40;15.63;;;14.57;;
23802;SDS011;12082;51.786;6.018;2023-09-19T13:51:07;14.17;;;13.07;;
23802;SDS011;12082;51.786;6.018;2023-09-19T13:53:33;13.50;;;12.40;;
23802;SDS011;12082;51.786;6.018;2023-09-19T13:55:59;12.50;;;11.70;;
23802;SDS011;12082;51.786;6.018;2023-09-19T13:58:26;13.47;;;12.50;;
23802;SDS011;12082;51.786;6.018;2023-09-19T14:00:56;12.63;;;11.83;;
23802;SDS011;12082;51.786;6.018;2023-09-19T14:03:23;13.67;;;12.53;;
23802;SDS011;12082;51.786;6.018;2023-09-19T14:05:53;12.93;;;12.17;;
23802;SDS011;12082;51.786;6.018;2023-09-19T14:08:20;16.43;;;15.43;;
23802;SDS011;12082;51.786;6.018;2023-09-19T14:10:48;13.43;;;12.17;;
23802;SDS011;12082;51.786;6.018;2023-09-19T14:13:15;13.50;;;12.47;;
23802;SDS011;12082;51.786;6.018;2023-09-19T14:15:42;13.37;;;12.40;;
23802;SDS011;12082;51.786;6.018;2023-09-19T14:18:09;14.87;;;13.87;;
23802;SDS011;12082;51.786;6.018;2023-09-19T14:20:37;17.13;;;16.07;;
23802;SDS011;12082;51.786;6.018;2023-09-19T14:23:07;15.00;;;14.03;;
23802;SDS011;12082;51.786;6.018;2023-09-19T14:25:35;15.57;;;14.43;;
23802;SDS011;12082;51.786;6.018;2023-09-19T14:28:03;15.47;;;14.47;;
23802;SDS011;12082;51.786;6.018;2023-09-19T14:30:32;16.70;;;15.70;;
23802;SDS011;12082;51.786;6.018;2023-09-19T14:32:59;15.17;;;14.07;;
23802;SDS011;12082;51.786;6.018;2023-09-19T14:35:27;16.43;;;15.43;;
23802;SDS011;12082;51.786;6.018;2023-09-19T14:37:53;15.10;;;14.10;;
23802;SDS011;12082;51.786;6.018;2023-09-19T14:40:20;15.30;;;14.47;;
23802;SDS011;12082;51.786;6.018;2023-09-19T14:42:47;14.77;;;13.93;;
23802;SDS011;12082;51.786;6.018;2023-09-19T14:45:14;15.80;;;14.90;;
23802;SDS011;12082;51.786;6.018;2023-09-19T14:47:43;15.83;;;14.70;;
23802;SDS011;12082;51.786;6.018;2023-09-19T14:50:10;15.63;;;14.63;;
23802;SDS011;12082;51.786;6.018;2023-09-19T14:52:37;17.17;;;16.00;;
23802;SDS011;12082;51.786;6.018;2023-09-19T14:55:05;15.90;;;15.00;;
23802;SDS011;12082;51.786;6.018;2023-09-19T14:57:34;16.93;;;15.57;;
23802;SDS011;12082;51.786;6.018;2023-09-19T15:00:05;15.23;;;14.07;;
23802;SDS011;12082;51.786;6.018;2023-09-19T15:02:33;15.37;;;14.37;;
23802;SDS011;12082;51.786;6.018;2023-09-19T15:04:59;15.53;;;14.47;;
23802;SDS011;12082;51.786;6.018;2023-09-19T15:07:25;16.77;;;15.57;;
23802;SDS011;12082;51.786;6.018;2023-09-19T15:09:53;14.80;;;13.43;;
23802;SDS011;12082;51.786;6.018;2023-09-19T15:12:20;15.40;;;14.30;;
23802;SDS011;12082;51.786;6.018;2023-09-19T15:14:46;17.70;;;16.40;;
23802;SDS011;12082;51.786;6.018;2023-09-19T15:17:12;15.30;;;13.97;;
23802;SDS011;12082;51.786;6.018;2023-09-19T15:19:38;14.47;;;13.23;;
23802;SDS011;12082;51.786;6.018;2023-09-19T15:22:04;14.80;;;13.80;;
23802;SDS011;12082;51.786;6.018;2023-09-19T15:24:30;14.60;;;13.10;;
23802;SDS011;12082;51.786;6.018;2023-09-19T15:26:56;15.33;;;14.23;;
23802;SDS011;12082;51.786;6.018;2023-09-19T15:29:22;13.77;;;12.60;;